| time (UTC) | temp C | wind direction | speed KPH | gust KPH | rain 1hr cm | rain 24hr cm | rain mn cm | humidity % | barometer mb |
| 20260507223102 | 11 | 106 | 11.3 | 14.5 | 0.00 | 0.00 | 0.00 | 83 | 1016.0 |
| 20260507221549 | 11 | 98 | 12.9 | 16.1 | 0.00 | 0.00 | 0.00 | 79 | 1016.1 |
| 20260507220042 | 11 | 89 | 12.9 | 14.5 | 0.00 | 0.00 | 0.00 | 78 | 1016.0 |
| 20260507214547 | 11 | 101 | 9.7 | 14.5 | 0.00 | 0.00 | 0.00 | 80 | 1016.1 |
| 20260507213045 | 11 | 108 | 12.9 | 16.1 | 0.00 | 0.00 | 0.00 | 81 | 1016.2 |
| 20260507211556 | 11 | 105 | 14.5 | 17.7 | 0.00 | 0.00 | 0.00 | 81 | 1016.1 |
| 20260507210104 | 11 | 98 | 12.9 | 19.3 | 0.00 | 0.00 | 0.00 | 83 | 1016.1 |
| 20260507204549 | 11 | 88 | 16.1 | 20.9 | 0.00 | 0.00 | 0.00 | 83 | 1016.0 |
| 20260507203043 | 11 | 87 | 16.1 | 19.3 | 0.00 | 0.00 | 0.00 | 82 | 1015.9 |
| 20260507201544 | 11 | 92 | 16.1 | 19.3 | 0.00 | 0.00 | 0.00 | 82 | 1015.9 |
| 20260507200052 | 11 | 86 | 14.5 | 19.3 | 0.00 | 0.00 | 0.00 | 81 | 1015.8 |
| 20260507194550 | 11 | 75 | 14.5 | 19.3 | 0.00 | 0.00 | 0.00 | 81 | 1015.7 |
| 20260507193041 | 11 | 76 | 14.5 | 17.7 | 0.00 | 0.00 | 0.00 | 81 | 1015.8 |
| 20260507191548 | 11 | 84 | 12.9 | 17.7 | 0.00 | 0.00 | 0.00 | 81 | 1015.6 |
| 20260507190050 | 11 | 83 | 12.9 | 19.3 | 0.00 | 0.00 | 0.00 | 80 | 1015.5 |
| 20260507184548 | 11 | 77 | 11.3 | 19.3 | 0.00 | 0.00 | 0.00 | 80 | 1015.5 |
| 20260507183110 | 11 | 86 | 17.7 | 24.1 | 0.00 | 0.00 | 0.00 | 80 | 1015.5 |
| 20260507181551 | 11 | 76 | 17.7 | 19.3 | 0.00 | 0.00 | 0.00 | 80 | 1015.5 |
| 20260507180042 | 11 | 77 | 17.7 | 22.5 | 0.00 | 0.00 | 0.00 | 80 | 1015.5 |
| 20260507174554 | 11 | 88 | 20.9 | 27.4 | 0.00 | 0.00 | 0.00 | 80 | 1015.4 |
| 20260507173050 | 11 | 91 | 22.5 | 25.7 | 0.00 | 0.00 | 0.00 | 80 | 1015.4 |
| 20260507171548 | 11 | 84 | 19.3 | 27.4 | 0.00 | 0.00 | 0.00 | 79 | 1015.4 |
| 20260507170046 | 11 | 86 | 22.5 | 27.4 | 0.00 | 0.00 | 0.00 | 78 | 1015.4 |
| 20260507164602 | 11 | 86 | 20.9 | 25.7 | 0.00 | 0.00 | 0.00 | 77 | 1015.4 |
| 20260507163054 | 11 | 83 | 24.1 | 29.0 | 0.00 | 0.00 | 0.00 | 78 | 1015.4 |
| 20260507161551 | 11 | 85 | 24.1 | 29.0 | 0.00 | 0.00 | 0.00 | 79 | 1015.4 |
| 20260507160048 | 11 | 85 | 20.9 | 25.7 | 0.00 | 0.00 | 0.00 | 77 | 1015.6 |
| 20260507154548 | 11 | 86 | 20.9 | 24.1 | 0.00 | 0.00 | 0.00 | 78 | 1015.5 |
| 20260507153056 | 11 | 91 | 20.9 | 25.7 | 0.00 | 0.00 | 0.00 | 79 | 1015.5 |
| 20260507151540 | 11 | 89 | 19.3 | 24.1 | 0.00 | 0.00 | 0.00 | 78 | 1015.6 |
| 20260507150048 | 11 | 89 | 19.3 | 24.1 | 0.00 | 0.00 | 0.00 | 78 | 1015.6 |
| 20260507144548 | 11 | 93 | 20.9 | 24.1 | 0.00 | 0.05 | 0.00 | 78 | 1015.6 |
| 20260507143047 | 11 | 84 | 20.9 | 24.1 | 0.00 | 0.05 | 0.00 | 77 | 1015.6 |
| 20260507141545 | 11 | 89 | 20.9 | 24.1 | 0.00 | 0.05 | 0.00 | 76 | 1015.7 |
| 20260507140044 | 11 | 94 | 19.3 | 24.1 | 0.00 | 0.05 | 0.00 | 76 | 1015.8 |
| 20260507134550 | 11 | 108 | 20.9 | 25.7 | 0.00 | 0.05 | 0.00 | 77 | 1015.7 |
| 20260507133052 | 11 | 96 | 22.5 | 25.7 | 0.00 | 0.05 | 0.00 | 75 | 1015.7 |
| 20260507131548 | 11 | 94 | 22.5 | 25.7 | 0.00 | 0.05 | 0.00 | 75 | 1015.6 |
| 20260507130054 | 11 | 98 | 22.5 | 25.7 | 0.00 | 0.05 | 0.00 | 75 | 1015.8 |
| 20260507124559 | 11 | 96 | 20.9 | 22.5 | 0.00 | 0.05 | 0.00 | 73 | 1015.9 |
| 20260507123051 | 11 | 91 | 20.9 | 24.1 | 0.00 | 0.05 | 0.00 | 74 | 1015.9 |
| 20260507121551 | 11 | 98 | 20.9 | 24.1 | 0.00 | 0.05 | 0.00 | 75 | 1015.7 |
| 20260507120053 | 11 | 98 | 20.9 | 25.7 | 0.00 | 0.05 | 0.00 | 77 | 1015.8 |
| 20260507114605 | 11 | 92 | 20.9 | 24.1 | 0.00 | 0.05 | 0.00 | 76 | 1015.7 |
| 20260507113104 | 11 | 100 | 20.9 | 25.7 | 0.00 | 0.05 | 0.00 | 76 | 1015.7 |
| 20260507111547 | 11 | 98 | 22.5 | 25.7 | 0.00 | 0.05 | 0.00 | 77 | 1015.8 |
| 20260507110043 | 11 | 106 | 22.5 | 30.6 | 0.00 | 0.05 | 0.00 | 77 | 1015.8 |
| 20260507104546 | 11 | 102 | 24.1 | 27.4 | 0.00 | 0.05 | 0.00 | 76 | 1016.0 |
| 20260507103049 | 11 | 103 | 19.3 | 24.1 | 0.00 | 0.05 | 0.00 | 77 | 1016.0 |
| 20260507101538 | 11 | 80 | 19.3 | 24.1 | 0.00 | 0.05 | 0.00 | 77 | 1015.9 |
| 20260507100044 | 11 | 105 | 16.1 | 20.9 | 0.00 | 0.05 | 0.00 | 77 | 1015.9 |
| 20260507094544 | 11 | 100 | 11.3 | 16.1 | 0.00 | 0.05 | 0.00 | 75 | 1015.9 |
| 20260507093042 | 10 | 102 | 12.9 | 17.7 | 0.00 | 0.05 | 0.00 | 76 | 1015.9 |
| 20260507091541 | 11 | 98 | 14.5 | 17.7 | 0.00 | 0.05 | 0.00 | 77 | 1015.8 |
| 20260507090044 | 10 | 87 | 9.7 | 16.1 | 0.00 | 0.05 | 0.00 | 77 | 1015.7 |
| 20260507084547 | 10 | 72 | 11.3 | 14.5 | 0.00 | 0.05 | 0.00 | 77 | 1015.7 |
| 20260507083044 | 10 | 51 | 6.4 | 14.5 | 0.00 | 0.05 | 0.00 | 78 | 1015.6 |
| 20260507081547 | 10 | 56 | 11.3 | 16.1 | 0.00 | 0.05 | 0.00 | 78 | 1015.6 |
| 20260507080049 | 10 | 63 | 8.0 | 17.7 | 0.00 | 0.05 | 0.00 | 80 | 1015.6 |
| 20260507074550 | 10 | 72 | 8.0 | 12.9 | 0.00 | 0.05 | 0.00 | 82 | 1015.7 |
| 20260507073043 | 10 | 27 | 6.4 | 11.3 | 0.00 | 0.05 | 0.00 | 82 | 1015.6 |
| 20260507071542 | 9 | 20 | 6.4 | 14.5 | 0.00 | 0.05 | 0.00 | 83 | 1015.7 |
| 20260507070041 | 9 | 30 | 8.0 | 12.9 | 0.00 | 0.05 | 0.00 | 83 | 1015.6 |
| 20260507064551 | 9 | 40 | 8.0 | 12.9 | 0.00 | 0.05 | 0.00 | 84 | 1015.5 |
| 20260507063045 | 8 | 15 | 8.0 | 14.5 | 0.00 | 0.05 | 0.00 | 84 | 1015.4 |
| 20260507061554 | 8 | 13 | 6.4 | 12.9 | 0.00 | 0.05 | 0.00 | 85 | 1015.3 |
| 20260507060058 | 8 | 22 | 4.8 | 12.9 | 0.00 | 0.05 | 0.00 | 86 | 1015.1 |
| 20260507054543 | 8 | 30 | 4.8 | 12.9 | 0.00 | 0.05 | 0.00 | 86 | 1015.0 |
| 20260507053047 | 8 | 25 | 6.4 | 11.3 | 0.00 | 0.05 | 0.00 | 86 | 1014.9 |
| 20260507051549 | 8 | 18 | 6.4 | 12.9 | 0.00 | 0.05 | 0.00 | 86 | 1014.9 |
| 20260507050045 | 8 | 347 | 4.8 | 11.3 | 0.00 | 0.05 | 0.00 | 86 | 1014.9 |
| 20260507044604 | 8 | 360 | 4.8 | 9.7 | 0.00 | 0.05 | 0.00 | 86 | 1014.7 |
| 20260507043059 | 8 | 359 | 4.8 | 8.0 | 0.00 | 0.05 | 0.00 | 86 | 1014.6 |
| 20260507041543 | 8 | 4 | 4.8 | 11.3 | 0.00 | 0.05 | 0.00 | 86 | 1014.6 |
| 20260507040051 | 8 | 1 | 4.8 | 11.3 | 0.00 | 0.05 | 0.00 | 86 | 1014.5 |
| 20260507034544 | 8 | 3 | 4.8 | 9.7 | 0.00 | 0.05 | 0.00 | 86 | 1014.5 |
| 20260507033044 | 8 | 13 | 3.2 | 9.7 | 0.00 | 0.05 | 0.00 | 85 | 1014.5 |
| 20260507031548 | 8 | 33 | 6.4 | 12.9 | 0.00 | 0.05 | 0.00 | 85 | 1014.5 |
| 20260507030042 | 8 | 352 | 1.6 | 6.4 | 0.00 | 0.05 | 0.00 | 84 | 1014.5 |
| 20260507024553 | 8 | 3 | 3.2 | 8.0 | 0.00 | 0.05 | 0.00 | 84 | 1014.5 |
| 20260507023104 | 8 | 5 | 1.6 | 8.0 | 0.00 | 0.05 | 0.00 | 84 | 1014.5 |
| 20260507021551 | 8 | 7 | 3.2 | 11.3 | 0.00 | 0.05 | 0.00 | 83 | 1014.4 |
| 20260507020058 | 8 | 28 | 6.4 | 11.3 | 0.00 | 0.05 | 0.00 | 83 | 1014.3 |
| 20260507014546 | 8 | 25 | 6.4 | 11.3 | 0.00 | 0.05 | 0.00 | 84 | 1014.3 |
| 20260507013042 | 8 | 38 | 6.4 | 11.3 | 0.00 | 0.05 | 0.00 | 84 | 1014.3 |
| 20260507011548 | 8 | 22 | 6.4 | 16.1 | 0.00 | 0.05 | 0.00 | 84 | 1014.3 |
| 20260507010047 | 8 | 13 | 6.4 | 12.9 | 0.00 | 0.05 | 0.00 | 83 | 1014.4 |
| 20260507004544 | 8 | 21 | 6.4 | 12.9 | 0.00 | 0.05 | 0.00 | 83 | 1014.3 |
| 20260507003056 | 8 | 45 | 6.4 | 14.5 | 0.00 | 0.05 | 0.00 | 83 | 1014.2 |
| 20260507001610 | 8 | 23 | 8.0 | 12.9 | 0.00 | 0.05 | 0.00 | 83 | 1014.3 |
| 20260507000051 | 8 | 1 | 3.2 | 8.0 | 0.00 | 0.05 | 0.00 | 83 | 1014.4 |
| 20260506234554 | 9 | 7 | 3.2 | 8.0 | 0.00 | 0.05 | 0.00 | 83 | 1014.3 |
| 20260506233047 | 9 | 5 | 3.2 | 8.0 | 0.00 | 0.05 | 0.00 | 83 | 1014.3 |
| 20260506231554 | 9 | 340 | 1.6 | 8.0 | 0.00 | 0.05 | 0.00 | 83 | 1014.4 |
| 20260506230055 | 9 | 13 | 3.2 | 8.0 | 0.00 | 0.05 | 0.00 | 83 | 1014.3 |
| 20260506224543 | 9 | 27 | 4.8 | 8.0 | 0.00 | 0.05 | 0.05 | 83 | 1014.3 |